createdAt,value
2022-09-28T00:00:33.048Z,1.00
2022-09-28T00:03:19.759Z,0.97
2022-09-28T00:06:09.652Z,0.80
2022-09-28T00:08:57.042Z,1.27
2022-09-28T00:11:43.827Z,1.00
2022-09-28T00:14:32.451Z,2.00
2022-09-28T00:17:22.235Z,0.80
2022-09-28T00:20:09.822Z,0.73
2022-09-28T00:22:57.669Z,0.77
2022-09-28T00:25:44.251Z,0.80
2022-09-28T00:28:31.381Z,0.80
2022-09-28T00:31:19.050Z,0.60
2022-09-28T00:34:05.937Z,0.60
2022-09-28T00:36:52.570Z,0.60
2022-09-28T00:39:41.695Z,0.73
2022-09-28T00:42:28.442Z,0.60
2022-09-28T00:45:15.125Z,0.60
2022-09-28T00:48:01.983Z,0.80
2022-09-28T00:50:48.534Z,0.63
2022-09-28T00:53:36.791Z,0.70
2022-09-28T00:56:26.634Z,0.63
2022-09-28T00:59:13.862Z,0.60
2022-09-28T01:02:00.368Z,0.70
2022-09-28T01:04:47.552Z,0.80
2022-09-28T01:07:34.856Z,0.90
2022-09-28T01:10:21.467Z,0.60
2022-09-28T01:13:09.978Z,0.70
2022-09-28T01:16:01.129Z,0.80
2022-09-28T01:18:55.406Z,0.80
2022-09-28T01:21:51.115Z,0.60
2022-09-28T01:24:41.893Z,0.60
2022-09-28T01:27:31.118Z,0.63
2022-09-28T01:30:18.593Z,0.73
2022-09-28T01:33:08.254Z,0.70
2022-09-28T01:35:56.969Z,0.93
2022-09-28T01:38:47.610Z,0.87
2022-09-28T01:41:36.767Z,0.90
2022-09-28T01:44:27.288Z,0.63
2022-09-28T01:47:15.969Z,0.60
2022-09-28T01:50:06.343Z,0.70
2022-09-28T01:52:56.552Z,1.03
2022-09-28T01:55:46.357Z,0.80
2022-09-28T01:58:37.538Z,0.70
2022-09-28T02:01:30.522Z,0.83
2022-09-28T02:04:19.423Z,0.90
2022-09-28T02:07:09.585Z,0.80
2022-09-28T02:09:59.442Z,1.00
2022-09-28T02:12:48.472Z,0.90
2022-09-28T02:15:38.842Z,1.00
2022-09-28T02:18:26.973Z,0.70
2022-09-28T02:21:18.527Z,0.80
2022-09-28T02:24:08.757Z,0.67
2022-09-28T02:26:56.978Z,0.90
2022-09-28T02:29:43.377Z,1.57
2022-09-28T02:32:31.163Z,0.97
2022-09-28T02:35:20.492Z,0.70
2022-09-28T02:38:06.729Z,1.00
2022-09-28T02:41:02.045Z,0.83
2022-09-28T02:43:56.936Z,0.83
2022-09-28T02:46:49.450Z,1.23
2022-09-28T02:49:39.390Z,1.63
2022-09-28T02:52:39.850Z,1.57
2022-09-28T02:55:34.951Z,0.90
2022-09-28T02:58:30.231Z,1.00
2022-09-28T03:01:22.037Z,1.00
2022-09-28T03:04:13.801Z,0.87
2022-09-28T03:07:03.113Z,1.20
2022-09-28T03:09:55.761Z,1.13
2022-09-28T03:12:42.940Z,0.80
2022-09-28T03:15:31.095Z,1.30
2022-09-28T03:18:17.970Z,1.20
2022-09-28T03:21:05.535Z,0.90
2022-09-28T03:23:51.890Z,0.90
2022-09-28T03:26:39.781Z,1.03
2022-09-28T03:29:26.687Z,1.00
2022-09-28T03:32:13.160Z,0.80
2022-09-28T03:34:59.673Z,1.00
2022-09-28T03:37:45.954Z,0.80
2022-09-28T03:40:32.378Z,1.00
2022-09-28T03:43:20.588Z,1.23
2022-09-28T03:46:07.482Z,1.20
2022-09-28T03:48:53.922Z,1.30
2022-09-28T03:51:40.361Z,1.20
2022-09-28T03:54:27.160Z,1.20
2022-09-28T03:57:13.514Z,0.90
2022-09-28T04:00:01.351Z,1.13
2022-09-28T04:02:48.089Z,0.97
2022-09-28T04:05:34.428Z,1.10
2022-09-28T04:08:21.028Z,1.43
2022-09-28T04:11:07.932Z,1.67
2022-09-28T04:13:54.452Z,0.80
2022-09-28T04:16:42.159Z,1.37
2022-09-28T04:19:29.038Z,1.03
2022-09-28T04:22:15.412Z,1.20
2022-09-28T04:25:01.939Z,0.93
2022-09-28T04:28:05.608Z,1.30
2022-09-28T04:30:52.177Z,1.17
2022-09-28T04:33:39.873Z,1.10
2022-09-28T04:36:26.323Z,1.00
2022-09-28T04:39:12.813Z,1.43
2022-09-28T04:41:59.936Z,1.20
2022-09-28T04:44:46.655Z,2.23
2022-09-28T04:47:33.169Z,1.23
2022-09-28T04:50:20.851Z,1.50
2022-09-28T04:53:07.134Z,1.30
2022-09-28T04:55:58.462Z,1.17
2022-09-28T04:58:47.928Z,1.23
2022-09-28T05:01:38.398Z,1.23
2022-09-28T05:04:26.162Z,1.97
2022-09-28T05:07:14.208Z,1.93
2022-09-28T05:10:01.600Z,2.20
2022-09-28T05:12:47.784Z,2.30
2022-09-28T05:15:35.383Z,1.80
2022-09-28T05:18:22.567Z,2.30
2022-09-28T05:21:12.816Z,2.60
2022-09-28T05:24:00.832Z,2.47
2022-09-28T05:26:47.110Z,2.30
2022-09-28T05:29:33.604Z,1.70
2022-09-28T05:32:20.411Z,1.80
2022-09-28T05:35:08.058Z,1.50
2022-09-28T05:37:55.404Z,1.50
2022-09-28T05:40:43.205Z,2.03
2022-09-28T05:43:29.862Z,1.40
2022-09-28T05:46:16.182Z,2.10
2022-09-28T05:49:03.274Z,1.83
2022-09-28T05:51:49.940Z,3.23
2022-09-28T05:54:36.418Z,4.07
2022-09-28T05:57:24.254Z,2.83
2022-09-28T06:00:11.648Z,1.60
2022-09-28T06:03:00.106Z,2.17
2022-09-28T06:05:47.448Z,2.30
2022-09-28T06:08:34.171Z,2.00
2022-09-28T06:11:20.804Z,2.57
2022-09-28T06:14:08.437Z,2.40
2022-09-28T06:16:54.773Z,2.40
2022-09-28T06:19:41.473Z,3.40
2022-09-28T06:22:27.821Z,7.83
2022-09-28T06:25:14.225Z,16.10
2022-09-28T06:28:02.196Z,7.90
2022-09-28T06:30:50.271Z,5.30
2022-09-28T06:33:38.746Z,3.20
2022-09-28T06:36:25.507Z,2.77
2022-09-28T06:39:12.427Z,3.20
2022-09-28T06:41:58.902Z,3.00
2022-09-28T06:44:47.486Z,2.80
2022-09-28T06:47:35.407Z,2.20
2022-09-28T06:50:21.839Z,2.60
2022-09-28T06:53:09.887Z,2.60
2022-09-28T06:55:57.543Z,2.00
2022-09-28T06:58:43.993Z,2.00
2022-09-28T07:01:30.587Z,2.40
2022-09-28T07:04:18.926Z,1.93
2022-09-28T07:07:06.168Z,1.93
2022-09-28T07:09:55.502Z,1.87
2022-09-28T07:12:42.559Z,1.60
2022-09-28T07:15:29.505Z,2.20
2022-09-28T07:18:16.905Z,1.80
2022-09-28T07:21:08.698Z,1.63
2022-09-28T07:23:56.675Z,1.33
2022-09-28T07:26:45.466Z,1.30
2022-09-28T07:29:31.949Z,1.30
2022-09-28T07:32:18.236Z,1.60
2022-09-28T07:35:08.089Z,1.00
2022-09-28T07:38:01.552Z,1.43
2022-09-28T07:41:05.987Z,1.20
2022-09-28T07:43:52.869Z,1.43
2022-09-28T07:46:39.414Z,1.67
2022-09-28T07:49:25.888Z,1.40
2022-09-28T07:52:13.051Z,2.40
2022-09-28T07:55:06.587Z,2.27
2022-09-28T07:57:56.322Z,1.70
2022-09-28T08:00:43.228Z,1.07
2022-09-28T08:03:31.990Z,1.27
2022-09-28T08:06:20.413Z,1.13
2022-09-28T08:09:06.971Z,1.67
2022-09-28T08:11:54.886Z,1.20
2022-09-28T08:14:41.472Z,1.10
2022-09-28T08:17:28.347Z,1.40
2022-09-28T08:20:32.728Z,1.50
2022-09-28T08:23:20.362Z,1.40
2022-09-28T08:26:10.069Z,1.50
2022-09-28T08:29:00.353Z,1.60
2022-09-28T08:31:49.204Z,1.13
2022-09-28T08:34:36.640Z,1.30
2022-09-28T08:37:23.310Z,1.43
2022-09-28T08:40:14.810Z,1.20
2022-09-28T08:43:05.881Z,0.80
2022-09-28T08:45:54.038Z,0.70
2022-09-28T08:49:13.435Z,0.70
2022-09-28T08:52:02.094Z,0.60
2022-09-28T08:54:51.796Z,0.80
2022-09-28T08:57:45.117Z,0.90
2022-09-28T09:00:35.310Z,1.20
2022-09-28T09:03:24.550Z,0.80
2022-09-28T09:06:20.492Z,0.80
2022-09-28T09:09:11.982Z,0.60
2022-09-28T09:12:04.607Z,0.70
2022-09-28T09:15:20.990Z,0.70
2022-09-28T09:18:20.041Z,1.20
2022-09-28T09:21:12.007Z,0.70
2022-09-28T09:24:04.803Z,0.60
2022-09-28T09:26:53.649Z,0.60
2022-09-28T09:29:54.643Z,0.67
2022-09-28T09:32:59.810Z,0.80
2022-09-28T09:35:55.705Z,0.70
2022-09-28T09:38:58.140Z,0.90
2022-09-28T09:41:56.286Z,0.63
2022-09-28T09:44:55.068Z,0.90
2022-09-28T09:47:44.572Z,0.60
2022-09-28T09:50:34.867Z,0.57
2022-09-28T09:53:28.861Z,0.70
2022-09-28T09:56:21.177Z,0.90
2022-09-28T09:59:09.931Z,0.60
2022-09-28T10:01:57.646Z,0.80
2022-09-28T10:04:46.959Z,0.70
2022-09-28T10:07:43.436Z,0.80
2022-09-28T10:10:31.817Z,0.77
2022-09-28T10:13:19.791Z,0.70
2022-09-28T10:16:06.810Z,0.80
2022-09-28T10:18:53.486Z,0.60
2022-09-28T10:21:41.121Z,0.60
2022-09-28T10:24:31.959Z,0.67
2022-09-28T10:27:20.632Z,0.67
2022-09-28T10:30:16.670Z,0.60
2022-09-28T10:33:02.930Z,0.60
2022-09-28T10:35:49.758Z,0.70
2022-09-28T10:38:36.636Z,0.70
2022-09-28T10:41:23.140Z,0.80
2022-09-28T10:44:15.033Z,0.87
2022-09-28T10:47:05.416Z,0.70
2022-09-28T10:49:53.108Z,0.60
2022-09-28T10:52:41.671Z,0.60
2022-09-28T10:55:30.708Z,0.60
2022-09-28T10:58:27.249Z,0.60
2022-09-28T11:01:15.252Z,0.63
2022-09-28T11:04:05.226Z,0.70
2022-09-28T11:06:52.477Z,0.70
2022-09-28T11:09:45.706Z,0.67
2022-09-28T11:12:39.662Z,0.90
2022-09-28T11:15:29.024Z,0.90
2022-09-28T11:18:28.303Z,0.70
2022-09-28T11:21:18.353Z,0.63
2022-09-28T11:24:08.064Z,0.60
2022-09-28T11:26:57.557Z,0.73
2022-09-28T11:29:46.156Z,0.50
2022-09-28T11:32:42.513Z,0.70
2022-09-28T11:35:34.266Z,1.27
2022-09-28T11:38:33.669Z,0.67
2022-09-28T11:41:38.559Z,0.50
2022-09-28T11:44:37.785Z,0.70
2022-09-28T11:47:47.585Z,0.70
2022-09-28T11:50:44.233Z,0.60
2022-09-28T11:53:37.319Z,0.60
2022-09-28T11:56:33.876Z,0.70
2022-09-28T11:59:25.979Z,0.60
2022-09-28T12:02:16.430Z,0.60
2022-09-28T12:05:19.882Z,0.80
2022-09-28T12:08:10.966Z,0.60
2022-09-28T12:11:01.179Z,0.87
2022-09-28T12:13:49.272Z,0.70
2022-09-28T12:17:04.156Z,0.80
2022-09-28T12:19:49.764Z,0.50
2022-09-28T12:22:39.640Z,0.57
2022-09-28T12:25:27.646Z,0.50
2022-09-28T12:28:20.301Z,0.60
2022-09-28T12:31:14.354Z,0.60
2022-09-28T12:34:01.093Z,0.50
2022-09-28T12:36:57.388Z,0.70
2022-09-28T12:40:01.785Z,0.50
2022-09-28T12:43:29.151Z,0.40
2022-09-28T12:46:39.490Z,0.60
2022-09-28T12:52:50.812Z,0.60
2022-09-28T12:55:48.187Z,1.17
2022-09-28T12:58:52.208Z,0.53
2022-09-28T13:01:51.550Z,0.50
2022-09-28T13:04:47.874Z,0.70
2022-09-28T13:07:22.864Z,0.60
2022-09-28T13:10:01.362Z,0.60
2022-09-28T13:12:40.390Z,0.70
2022-09-28T13:15:38.414Z,0.70
2022-09-28T13:18:11.914Z,0.63
2022-09-28T13:20:47.625Z,0.80
2022-09-28T13:23:20.098Z,0.70
2022-09-28T13:25:53.888Z,0.80
2022-09-28T13:28:27.290Z,0.60
2022-09-28T13:33:33.840Z,0.80
2022-09-28T13:36:03.120Z,0.70
2022-09-28T13:38:47.170Z,0.63
2022-09-28T13:41:21.637Z,1.20
2022-09-28T13:44:02.878Z,1.17
2022-09-28T13:46:39.146Z,1.50
2022-09-28T13:49:12.468Z,1.43
2022-09-28T13:51:51.741Z,0.60
2022-09-28T13:54:41.559Z,0.90
2022-09-28T13:57:19.754Z,0.90
2022-09-28T13:59:55.576Z,2.27
2022-09-28T14:02:32.798Z,1.40
2022-09-28T14:05:03.844Z,0.93
2022-09-28T14:07:58.898Z,4.03
2022-09-28T14:10:52.021Z,1.63
2022-09-28T14:13:55.068Z,1.00
2022-09-28T14:16:27.070Z,3.97
2022-09-28T14:18:59.984Z,3.70
2022-09-28T14:22:03.188Z,2.43
2022-09-28T14:24:51.917Z,1.90
2022-09-28T14:27:33.655Z,1.50
2022-09-28T14:30:18.608Z,1.50
2022-09-28T14:32:54.821Z,1.80
2022-09-28T14:35:31.348Z,2.87
2022-09-28T14:38:19.632Z,1.50
2022-09-28T14:41:12.759Z,1.20
2022-09-28T14:44:05.397Z,1.10
2022-09-28T14:46:43.770Z,1.80
2022-09-28T14:49:49.019Z,1.50
2022-09-28T14:52:21.079Z,1.20
2022-09-28T14:54:54.336Z,1.67
2022-09-28T14:57:25.247Z,1.00
2022-09-28T14:59:54.055Z,3.63
2022-09-28T15:02:25.152Z,7.17
2022-09-28T15:05:00.242Z,2.50
2022-09-28T15:07:36.045Z,1.47
2022-09-28T15:10:07.486Z,1.20
2022-09-28T15:12:36.944Z,0.90
2022-09-28T15:15:21.130Z,1.10
2022-09-28T15:17:52.749Z,1.20
2022-09-28T15:20:24.992Z,1.30
2022-09-28T15:22:57.082Z,1.30
2022-09-28T15:25:28.945Z,1.60
2022-09-28T15:27:58.758Z,1.47
2022-09-28T15:30:29.364Z,2.27
2022-09-28T15:33:18.268Z,1.87
2022-09-28T15:35:49.248Z,1.63
2022-09-28T15:38:22.172Z,1.40
2022-09-28T15:40:57.332Z,2.10
2022-09-28T15:43:29.336Z,1.23
2022-09-28T15:46:02.626Z,1.20
2022-09-28T15:48:35.843Z,1.17
2022-09-28T15:51:11.100Z,0.87
2022-09-28T15:53:48.743Z,1.33
2022-09-28T15:56:17.028Z,1.00
2022-09-28T15:58:45.328Z,0.90
2022-09-28T16:01:36.284Z,0.80
2022-09-28T16:04:40.280Z,1.13
2022-09-28T16:07:27.796Z,3.70
2022-09-28T16:10:08.294Z,2.77
2022-09-28T16:12:49.295Z,2.40
2022-09-28T16:15:25.551Z,4.50
2022-09-28T16:17:56.022Z,2.70
2022-09-28T16:20:30.153Z,1.37
2022-09-28T16:23:05.912Z,1.60
2022-09-28T16:25:39.435Z,2.10
2022-09-28T16:28:09.150Z,0.70
2022-09-28T16:30:37.203Z,2.60
2022-09-28T16:33:06.969Z,2.40
2022-09-28T16:35:51.719Z,1.30
2022-09-28T16:38:20.717Z,1.60
2022-09-28T16:40:53.834Z,1.43
2022-09-28T16:43:26.987Z,1.57
2022-09-28T16:45:58.404Z,1.40
2022-09-28T16:48:27.485Z,1.37
2022-09-28T16:50:55.848Z,0.83
2022-09-28T16:53:41.580Z,0.70
2022-09-28T16:56:11.303Z,2.10
2022-09-28T16:58:39.450Z,2.20
2022-09-28T17:01:08.772Z,2.30
2022-09-28T17:03:37.571Z,1.80
2022-09-28T17:06:11.974Z,1.60
2022-09-28T17:08:40.704Z,1.60
2022-09-28T17:11:18.170Z,1.40
2022-09-28T17:13:50.769Z,2.10
2022-09-28T17:16:36.706Z,1.73
2022-09-28T17:19:20.121Z,1.30
2022-09-28T17:21:48.865Z,1.90
2022-09-28T17:24:17.498Z,1.97
2022-09-28T17:26:49.071Z,2.37
2022-09-28T17:29:17.407Z,5.43
2022-09-28T17:31:46.804Z,3.67
2022-09-28T17:34:16.596Z,2.30
2022-09-28T17:36:45.272Z,1.33
2022-09-28T17:39:14.504Z,1.63
2022-09-28T17:41:42.563Z,1.97
2022-09-28T17:44:15.175Z,1.87
2022-09-28T17:46:46.339Z,1.27
2022-09-28T17:49:14.966Z,1.30
2022-09-28T17:51:43.256Z,1.20
2022-09-28T17:54:13.010Z,1.20
2022-09-28T17:56:42.612Z,1.30
2022-09-28T17:59:15.123Z,0.90
2022-09-28T18:01:44.087Z,0.93
2022-09-28T18:04:33.420Z,1.20
2022-09-28T18:07:01.752Z,1.43
2022-09-28T18:09:29.932Z,1.13
2022-09-28T18:12:01.371Z,1.20
2022-09-28T18:14:30.788Z,1.13
2022-09-28T18:16:58.957Z,1.20
2022-09-28T18:19:31.731Z,1.07
2022-09-28T18:22:01.423Z,0.90
2022-09-28T18:24:30.071Z,0.60
2022-09-28T18:26:58.233Z,0.73
2022-09-28T18:29:28.924Z,0.80
2022-09-28T18:32:00.600Z,0.90
2022-09-28T18:34:28.669Z,1.30
2022-09-28T18:36:56.737Z,1.07
2022-09-28T18:39:26.568Z,1.70
2022-09-28T18:41:54.679Z,1.30
2022-09-28T18:44:22.864Z,1.50
2022-09-28T18:46:51.620Z,1.20
2022-09-28T18:49:21.280Z,1.10
2022-09-28T18:51:49.255Z,1.10
2022-09-28T18:54:17.455Z,1.20
2022-09-28T18:56:45.502Z,1.30
2022-09-28T18:59:14.155Z,0.90
2022-09-28T19:01:43.366Z,1.03
2022-09-28T19:04:12.906Z,1.40
2022-09-28T19:06:44.623Z,1.20
2022-09-28T19:09:13.250Z,1.00
2022-09-28T19:11:41.386Z,0.90
2022-09-28T19:14:11.117Z,0.80
2022-09-28T19:16:39.189Z,0.63
2022-09-28T19:19:07.308Z,1.23
2022-09-28T19:21:35.418Z,0.93
2022-09-28T19:24:05.368Z,1.50
2022-09-28T19:26:34.035Z,0.83
2022-09-28T19:29:02.875Z,1.30
2022-09-28T19:31:31.768Z,1.00
2022-09-28T19:34:00.176Z,1.07
2022-09-28T19:36:29.471Z,1.07
2022-09-28T19:38:58.882Z,0.70
2022-09-28T19:41:44.350Z,0.90
2022-09-28T19:44:15.845Z,0.63
2022-09-28T19:46:43.918Z,1.13
2022-09-28T19:49:13.280Z,1.13
2022-09-28T19:51:51.663Z,0.80
2022-09-28T19:54:35.700Z,1.10
2022-09-28T19:57:09.057Z,1.13
2022-09-28T19:59:37.525Z,0.87
2022-09-28T20:02:05.949Z,0.80
2022-09-28T20:04:34.026Z,1.20
2022-09-28T20:07:02.146Z,1.37
2022-09-28T20:09:30.276Z,1.57
2022-09-28T20:11:58.421Z,1.47
2022-09-28T20:14:32.857Z,1.70
2022-09-28T20:17:04.652Z,1.37
2022-09-28T20:19:32.738Z,0.80
2022-09-28T20:22:02.828Z,0.80
2022-09-28T20:24:31.421Z,0.70
2022-09-28T20:27:01.484Z,1.10
2022-09-28T20:29:33.549Z,1.00
2022-09-28T20:32:03.870Z,1.40
2022-09-28T20:34:33.588Z,1.23
2022-09-28T20:37:01.787Z,1.03
2022-09-28T20:39:29.849Z,1.40
2022-09-28T20:41:57.855Z,1.10
2022-09-28T20:44:25.935Z,1.00
2022-09-28T20:46:56.746Z,1.00
2022-09-28T20:49:24.880Z,0.97
2022-09-28T20:51:52.914Z,0.90
2022-09-28T20:54:22.233Z,1.43
2022-09-28T20:56:50.254Z,0.90
2022-09-28T20:59:18.395Z,1.20
2022-09-28T21:01:46.502Z,0.83
2022-09-28T21:04:15.935Z,1.27
2022-09-28T21:06:44.000Z,1.20
2022-09-28T21:09:13.309Z,2.00
2022-09-28T21:11:41.760Z,2.03
2022-09-28T21:14:10.793Z,1.37
2022-09-28T21:16:39.209Z,2.70
2022-09-28T21:19:07.518Z,2.27
2022-09-28T21:21:36.915Z,1.90
2022-09-28T21:24:05.210Z,2.13
2022-09-28T21:26:33.530Z,1.67
2022-09-28T21:29:02.689Z,1.50
2022-09-28T21:31:33.509Z,1.30
2022-09-28T21:34:01.843Z,1.43
2022-09-28T21:36:29.854Z,1.00
2022-09-28T21:38:59.209Z,15.00
2022-09-28T21:41:28.785Z,5.00
2022-09-28T21:43:56.805Z,3.53
2022-09-28T21:46:24.915Z,4.87
2022-09-28T21:48:54.477Z,8.10
2022-09-28T21:51:22.662Z,8.27
2022-09-28T21:53:50.810Z,5.30
2022-09-28T21:56:20.185Z,3.40
2022-09-28T21:58:48.417Z,1.23
2022-09-28T22:01:18.343Z,1.20
2022-09-28T22:03:48.560Z,1.33
2022-09-28T22:06:17.086Z,3.10
2022-09-28T22:08:45.583Z,1.87
2022-09-28T22:11:14.955Z,1.60
2022-09-28T22:13:46.124Z,1.53
2022-09-28T22:16:15.773Z,1.10
2022-09-28T22:18:43.970Z,1.33
2022-09-28T22:21:15.403Z,1.00
2022-09-28T22:23:43.453Z,1.10
2022-09-28T22:26:13.144Z,1.20
2022-09-28T22:28:45.151Z,1.10
2022-09-28T22:31:14.835Z,1.10
2022-09-28T22:33:43.057Z,1.60
2022-09-28T22:36:11.443Z,1.63
2022-09-28T22:38:40.456Z,1.17
2022-09-28T22:41:08.516Z,0.97
2022-09-28T22:43:36.463Z,1.20
2022-09-28T22:46:06.040Z,0.90
2022-09-28T22:48:35.880Z,1.00
2022-09-28T22:51:05.337Z,0.93
2022-09-28T22:53:33.984Z,1.10
2022-09-28T22:56:04.589Z,1.30
2022-09-28T22:58:32.929Z,1.10
2022-09-28T23:01:06.857Z,1.20
2022-09-28T23:03:36.423Z,0.93
2022-09-28T23:06:04.733Z,1.20
2022-09-28T23:08:33.021Z,1.17
2022-09-28T23:11:01.435Z,1.20
2022-09-28T23:13:31.114Z,1.00
2022-09-28T23:16:00.077Z,1.20
2022-09-28T23:18:28.940Z,1.00
2022-09-28T23:20:59.965Z,1.43
2022-09-28T23:23:28.650Z,1.00
2022-09-28T23:25:56.962Z,1.23
2022-09-28T23:28:26.480Z,1.30
2022-09-28T23:30:54.645Z,1.40
2022-09-28T23:33:22.922Z,1.47
2022-09-28T23:35:51.183Z,1.60
2022-09-28T23:38:20.514Z,1.33
2022-09-28T23:40:49.244Z,1.43
2022-09-28T23:43:17.291Z,1.60
2022-09-28T23:45:45.577Z,1.30
2022-09-28T23:48:15.029Z,1.37
2022-09-28T23:50:43.467Z,1.40
2022-09-28T23:53:11.936Z,1.03
2022-09-28T23:55:41.895Z,1.30
2022-09-28T23:58:09.986Z,2.10
